Bejou, Minnesota
Current Conditions -  °F | °C
As of 6:15 PM on Wednesday 22 Oct 2014 (Local Time) from K3N8 Reporting Station
Overcast Overcast  
Wind Chill: 60°   Ceiling: 4100
Heat Index: 60°   Visibility: 10mi
Dew Point: 46°   Wind: 13mph
Humidity: 59%   Direction: 160°SSE
Pressure: 29.85"   Gusts: 16mph
Location:  47.44°N, 95.98°W
Report Text: K3N8 222315Z AUTO 16011G14KT 10SM OVC041 16/08 A2985 RMK AO2 T01550075
Loading
Personal Weather Stations






























Interactive Weather Map
Tropical Storm Tracking
New forecast layout! Learn more

10-Day Weather Forecast

Advertisements
Track Severe Weather on mobile